Elkhorn, Missouri
Current Conditions -  °F | °C
As of 11:55 PM on Wednesday 28 Jan 2015 (Local Time) from KFYG Reporting Station
Few Clouds Few Clouds  
Wind Chill: 50°   Ceiling: Unl
Heat Index: 50°   Visibility: 10mi
Dew Point: 37°   Wind: 9mph
Humidity: 62%   Direction: 170°S
Pressure: 29.78"   Gusts: NA
Location:  38.7835°N, 91.2441°W
Report Text: KFYG 290555Z AUTO 17008KT 10SM FEW060 10/03 A2978 RMK AO2
Loading
Personal Weather Stations






























Interactive Weather Map New forecast layout! Learn more

10-Day Weather Forecast

Advertisements
Track Severe Weather on mobile